»·PEaware :: N172SP L52-L88

N172SP :: L52-L88

FLIGHT INFORMATION

Flight Status: Arrived
Operator: Privately registered:
United States
More flights under this callsign
Pilot: Anonymous 17689 (17689)
Aircraft: CESSNA 172 SKYHAWK
(C172)
More flights by this aircraft type
Origin: L52 Oceano Co
United States
Destination: L88 New Cuyama
United States
More flights between these airports :: More routes between these airports
Route:
File this flight plan on PilotEdge
Remarks: Sample flight
Altitude:
(Current/Filed)
7,500ft
Speed:
(Current/Filed)
110kts
Departed: 30-Dec-17 03:38 PM
Arrived: 30-Dec-17 04:14 PM
Distance/Time
Traveled:
47nm/0:36
Distance/Time
To Go:
Arrived

Flight Plot

Page will automatically refresh every two minutes.


Map Options




Map Legend


Flown Route
Filed Route
Departure Airport
Arrival Airport
Navaid (VOR, NDB)
Fix

Horizontal Profiles

Position Reports

Time Latitude Longitude Heading Altitude Ground
Speed
30-Dec-17 15:19 35.103406 -120.624442 32 18ft 0kts
30-Dec-17 15:20 35.103406 -120.624442 32 18ft 0kts
30-Dec-17 15:21 35.103406 -120.624442 32 18ft 0kts
30-Dec-17 15:22 35.103406 -120.624442 32 18ft 0kts
30-Dec-17 15:23 35.103406 -120.624442 32 18ft 0kts
30-Dec-17 15:24 35.103406 -120.624442 32 18ft 0kts
30-Dec-17 15:25 35.103406 -120.624442 32 18ft 0kts
30-Dec-17 15:26 35.103406 -120.624442 32 18ft 0kts
30-Dec-17 15:27 35.103406 -120.624442 32 18ft 0kts
30-Dec-17 15:28 35.103406 -120.624442 32 18ft 0kts
30-Dec-17 15:29 35.103406 -120.624442 32 18ft 0kts
30-Dec-17 15:30 35.103406 -120.624442 32 18ft 0kts
30-Dec-17 15:31 35.103406 -120.624442 32 18ft 0kts
30-Dec-17 15:32 35.103406 -120.624442 32 18ft 0kts
30-Dec-17 15:33 35.103406 -120.624442 32 18ft 0kts
30-Dec-17 15:34 35.103406 -120.624442 32 18ft 0kts
30-Dec-17 15:35 35.103406 -120.624442 32 18ft 0kts
30-Dec-17 15:36 35.103406 -120.624442 32 18ft 0kts
30-Dec-17 15:37 35.103406 -120.624442 32 18ft 0kts
30-Dec-17 15:38 35.103406 -120.624442 32 18ft 0kts
30-Dec-17 15:39 35.103406 -120.624442 32 18ft 0kts
30-Dec-17 15:40 35.103406 -120.624442 32 18ft 0kts
30-Dec-17 15:41 35.103406 -120.624441 36 18ft 0kts
30-Dec-17 15:42 35.102617 -120.623258 116 18ft 3kts
30-Dec-17 15:43 35.101861 -120.622154 200 18ft 0kts
30-Dec-17 15:44 35.104417 -120.628010 288 238ft 60kts
30-Dec-17 15:45 35.102110 -120.645641 147 1256ft 75kts
30-Dec-17 15:46 35.095707 -120.620860 102 2236ft 87kts
30-Dec-17 15:47 35.091165 -120.586893 93 2849ft 108kts
30-Dec-17 15:48 35.088810 -120.549651 93 3450ft 110kts
30-Dec-17 15:49 35.083964 -120.512996 101 4045ft 109kts
30-Dec-17 15:50 35.077411 -120.476963 101 4643ft 108kts
30-Dec-17 15:51 35.070904 -120.441347 101 5242ft 107kts
30-Dec-17 15:52 35.064851 -120.406037 100 5841ft 105kts
30-Dec-17 15:53 35.058976 -120.371213 100 6438ft 104kts
30-Dec-17 15:54 35.053205 -120.337068 101 7034ft 102kts
30-Dec-17 15:55 35.047446 -120.303134 101 7539ft 109kts
30-Dec-17 15:56 35.041014 -120.265907 101 7525ft 106kts
30-Dec-17 15:57 35.034993 -120.231134 101 7525ft 104kts
30-Dec-17 15:58 35.029017 -120.196763 101 7526ft 103kts
30-Dec-17 15:59 35.023020 -120.162382 101 7526ft 103kts
30-Dec-17 16:00 35.017007 -120.128017 101 7526ft 103kts
30-Dec-17 16:01 35.010955 -120.093577 101 7526ft 103kts
30-Dec-17 16:02 35.004773 -120.058499 102 7367ft 115kts
30-Dec-17 16:03 34.997620 -120.018313 102 6740ft 119kts
30-Dec-17 16:04 34.991169 -119.982307 102 5934ft 104kts
30-Dec-17 16:05 34.985072 -119.948363 102 5135ft 102kts
30-Dec-17 16:06 34.980316 -119.922195 104 5005ft 65kts
30-Dec-17 16:07 34.974485 -119.894976 102 4995ft 85kts
30-Dec-17 16:08 34.969656 -119.865424 99 4985ft 90kts
30-Dec-17 16:09 34.965926 -119.833176 96 4734ft 109kts
30-Dec-17 16:10 34.962571 -119.796210 95 4479ft 100kts
30-Dec-17 16:11 34.949023 -119.774079 190 4477ft 93kts
30-Dec-17 16:12 34.925221 -119.780009 125 4391ft 99kts
30-Dec-17 16:13 34.908718 -119.749098 122 3901ft 117kts
30-Dec-17 16:14 34.892377 -119.714122 103 3222ft 121kts
30-Dec-17 16:15 34.895180 -119.678327 72 3133ft 98kts
30-Dec-17 16:16 34.894524 -119.646462 95 3133ft 94kts
30-Dec-17 16:17 34.901557 -119.623577 342 3131ft 67kts
30-Dec-17 16:18 34.908508 -119.639542 318 2808ft 56kts
30-Dec-17 16:19 34.918851 -119.653664 295 2486ft 55kts
30-Dec-17 16:20 34.922214 -119.663252 318 2340ft 8kts
30-Dec-17 16:21 34.928822 -119.670925 333 2275ft 46kts
30-Dec-17 16:22 34.936034 -119.677661 315 2214ft 32kts
30-Dec-17 16:23 34.938312 -119.680885 307 2207ft 0kts

Navigation Log

Ident Type
Flight plan parsing failed, navigation log unavailable